createdAt,value
2023-01-28T00:01:43.540Z,18.40
2023-01-28T00:04:11.549Z,21.80
2023-01-28T00:06:39.202Z,19.10
2023-01-28T00:09:07.200Z,19.20
2023-01-28T00:11:34.976Z,19.50
2023-01-28T00:14:04.873Z,16.40
2023-01-28T00:16:32.884Z,18.10
2023-01-28T00:19:00.711Z,19.00
2023-01-28T00:21:28.466Z,19.20
2023-01-28T00:23:57.028Z,16.40
2023-01-28T00:26:25.687Z,15.60
2023-01-28T00:28:53.399Z,15.40
2023-01-28T00:31:25.240Z,14.40
2023-01-28T00:33:55.304Z,14.90
2023-01-28T00:36:25.885Z,18.20
2023-01-28T00:38:57.533Z,21.50
2023-01-28T00:41:29.012Z,18.80
2023-01-28T00:43:56.973Z,21.20
2023-01-28T00:46:28.790Z,19.10
2023-01-28T00:48:56.707Z,19.80
2023-01-28T00:51:24.683Z,19.60
2023-01-28T00:53:53.917Z,19.60
2023-01-28T00:56:21.741Z,18.20
2023-01-28T00:58:49.452Z,16.50
2023-01-28T01:01:25.457Z,19.20
2023-01-28T01:04:02.822Z,18.00
2023-01-28T01:06:35.923Z,16.20
2023-01-28T01:09:08.683Z,17.90
2023-01-28T01:11:37.171Z,19.00
2023-01-28T01:14:07.202Z,19.00
2023-01-28T01:16:36.309Z,20.20
2023-01-28T01:19:04.707Z,19.20
2023-01-28T01:21:32.502Z,15.30
2023-01-28T01:24:00.504Z,19.40
2023-01-28T01:26:28.274Z,17.00
2023-01-28T01:28:56.275Z,14.30
2023-01-28T01:31:23.969Z,16.80
2023-01-28T01:33:52.709Z,14.90
2023-01-28T01:36:22.028Z,17.50
2023-01-28T01:38:55.422Z,18.10
2023-01-28T01:41:33.108Z,18.40
2023-01-28T01:44:05.019Z,18.10
2023-01-28T01:46:38.343Z,19.10
2023-01-28T01:49:26.653Z,20.00
2023-01-28T01:52:07.600Z,17.20
2023-01-28T01:54:39.040Z,19.40
2023-01-28T01:57:11.559Z,17.90
2023-01-28T01:59:42.462Z,18.20
2023-01-28T02:02:12.478Z,16.40
2023-01-28T02:04:44.826Z,16.60
2023-01-28T02:07:16.622Z,19.80
2023-01-28T02:09:44.406Z,18.80
2023-01-28T02:12:21.744Z,19.10
2023-01-28T02:15:00.875Z,18.00
2023-01-28T02:17:29.933Z,19.10
2023-01-28T02:20:02.299Z,18.10
2023-01-28T02:23:17.948Z,17.40
2023-01-28T02:26:17.557Z,13.80
2023-01-28T02:29:25.422Z,13.80
2023-01-28T02:32:04.284Z,16.00
2023-01-28T02:34:48.094Z,15.30
2023-01-28T02:37:27.702Z,15.60
2023-01-28T02:40:09.024Z,15.40
2023-01-28T02:42:40.572Z,16.70
2023-01-28T02:46:08.509Z,17.40
2023-01-28T02:48:38.451Z,16.60
2023-01-28T02:51:54.248Z,15.00
2023-01-28T02:54:46.473Z,15.70
2023-01-28T02:57:43.377Z,16.70
2023-01-28T03:00:25.862Z,13.10
2023-01-28T03:03:30.055Z,14.60
2023-01-28T03:06:09.217Z,17.00
2023-01-28T03:09:11.225Z,19.00
2023-01-28T03:12:18.431Z,16.30
2023-01-28T03:15:16.368Z,16.10
2023-01-28T03:18:35.146Z,14.80
2023-01-28T03:21:26.984Z,11.00
2023-01-28T03:24:19.269Z,14.10
2023-01-28T03:27:43.966Z,11.70
2023-01-28T03:30:35.803Z,12.70
2023-01-28T03:33:26.390Z,13.60
2023-01-28T03:36:12.734Z,14.20
2023-01-28T03:38:43.036Z,15.00
2023-01-28T03:41:12.098Z,14.30
2023-01-28T03:43:40.183Z,11.90
2023-01-28T03:46:07.995Z,13.50
2023-01-28T03:48:35.781Z,13.50
2023-01-28T03:51:03.806Z,13.20
2023-01-28T03:53:31.493Z,13.00
2023-01-28T03:55:59.245Z,10.10
2023-01-28T03:58:46.432Z,13.60
2023-01-28T04:01:14.338Z,14.20
2023-01-28T04:03:44.122Z,14.80
2023-01-28T04:06:11.833Z,13.80
2023-01-28T04:08:39.536Z,15.10
2023-01-28T04:11:16.143Z,14.00
2023-01-28T04:13:44.267Z,14.60
2023-01-28T04:16:14.700Z,15.10
2023-01-28T04:18:44.093Z,15.90
2023-01-28T04:21:12.665Z,10.80
2023-01-28T04:23:40.323Z,13.30
2023-01-28T04:26:08.625Z,14.00
2023-01-28T04:28:36.401Z,12.90
2023-01-28T04:31:04.170Z,13.80
2023-01-28T04:33:32.115Z,14.00
2023-01-28T04:35:59.837Z,11.70
2023-01-28T04:38:27.564Z,12.80
2023-01-28T04:40:55.341Z,14.00
2023-01-28T04:43:23.093Z,13.20
2023-01-28T04:45:51.310Z,15.20
2023-01-28T04:48:19.123Z,11.20
2023-01-28T04:50:46.937Z,13.20
2023-01-28T04:53:14.633Z,11.50
2023-01-28T04:55:42.255Z,9.90
2023-01-28T04:58:09.977Z,13.20
2023-01-28T05:00:37.633Z,14.90
2023-01-28T05:03:05.447Z,14.60
2023-01-28T05:05:33.135Z,11.20
2023-01-28T05:08:00.814Z,14.30
2023-01-28T05:10:28.793Z,14.20
2023-01-28T05:12:56.393Z,14.10
2023-01-28T05:15:24.144Z,13.70
2023-01-28T05:17:56.921Z,12.90
2023-01-28T05:20:24.650Z,10.70
2023-01-28T05:22:52.731Z,11.80
2023-01-28T05:25:20.660Z,13.10
2023-01-28T05:27:51.997Z,12.10
2023-01-28T05:30:21.429Z,9.00
2023-01-28T05:32:49.619Z,11.30
2023-01-28T05:35:17.701Z,14.70
2023-01-28T05:37:45.632Z,12.40
2023-01-28T05:40:14.756Z,11.50
2023-01-28T05:42:42.624Z,12.50
2023-01-28T05:45:10.521Z,11.30
2023-01-28T05:47:39.369Z,13.10
2023-01-28T05:50:09.200Z,11.40
2023-01-28T05:52:36.886Z,12.50
2023-01-28T05:55:05.253Z,11.60
2023-01-28T05:57:33.097Z,12.00
2023-01-28T06:00:00.763Z,7.70
2023-01-28T06:02:30.795Z,9.90
2023-01-28T06:04:58.716Z,13.50
2023-01-28T06:07:26.642Z,12.40
2023-01-28T06:09:54.434Z,11.30
2023-01-28T06:12:22.219Z,11.80
2023-01-28T06:14:49.913Z,11.90
2023-01-28T06:17:17.639Z,11.80
2023-01-28T06:19:45.462Z,11.70
2023-01-28T06:22:13.262Z,10.30
2023-01-28T06:24:41.008Z,9.90
2023-01-28T06:27:08.788Z,7.80
2023-01-28T06:29:36.548Z,9.50
2023-01-28T06:32:05.496Z,7.50
2023-01-28T06:34:33.566Z,9.70
2023-01-28T06:37:01.204Z,9.50
2023-01-28T06:39:31.843Z,8.90
2023-01-28T06:42:00.890Z,9.40
2023-01-28T06:44:28.768Z,9.80
2023-01-28T06:46:56.606Z,9.20
2023-01-28T06:49:24.373Z,7.00
2023-01-28T06:51:52.656Z,7.80
2023-01-28T06:54:20.710Z,6.70
2023-01-28T06:56:48.382Z,6.80
2023-01-28T06:59:16.010Z,6.80
2023-01-28T07:01:43.780Z,7.00
2023-01-28T07:04:11.554Z,8.00
2023-01-28T07:06:39.351Z,8.40
2023-01-28T07:09:07.140Z,10.20
2023-01-28T07:11:34.910Z,8.80
2023-01-28T07:14:02.957Z,10.80
2023-01-28T07:16:31.565Z,7.80
2023-01-28T07:18:59.302Z,9.20
2023-01-28T07:21:27.083Z,7.00
2023-01-28T07:23:57.994Z,7.20
2023-01-28T07:26:25.727Z,7.50
2023-01-28T07:28:53.364Z,7.10
2023-01-28T07:31:23.495Z,8.70
2023-01-28T07:33:51.186Z,8.40
2023-01-28T07:36:18.915Z,8.80
2023-01-28T07:38:46.815Z,10.60
2023-01-28T07:41:14.473Z,9.10
2023-01-28T07:43:42.438Z,9.20
2023-01-28T07:46:10.143Z,8.80
2023-01-28T07:48:37.874Z,8.20
2023-01-28T07:51:05.696Z,8.80
2023-01-28T07:53:33.445Z,8.40
2023-01-28T07:56:02.007Z,7.20
2023-01-28T07:58:29.809Z,8.30
2023-01-28T08:00:59.306Z,7.70
2023-01-28T08:03:28.948Z,7.60
2023-01-28T08:05:58.057Z,6.10
2023-01-28T08:08:27.380Z,6.90
2023-01-28T08:10:55.240Z,6.80
2023-01-28T08:13:23.260Z,9.70
2023-01-28T08:15:56.834Z,8.10
2023-01-28T08:18:24.755Z,9.50
2023-01-28T08:20:57.248Z,8.30
2023-01-28T08:23:30.304Z,7.30
2023-01-28T08:25:59.231Z,6.20
2023-01-28T08:28:27.809Z,6.10
2023-01-28T08:30:55.666Z,6.60
2023-01-28T08:33:23.467Z,8.20
2023-01-28T08:35:51.303Z,6.60
2023-01-28T08:38:20.332Z,8.00
2023-01-28T08:40:50.521Z,7.60
2023-01-28T08:43:18.219Z,7.80
2023-01-28T08:45:46.002Z,9.00
2023-01-28T08:48:18.394Z,10.00
2023-01-28T08:50:46.855Z,7.80
2023-01-28T08:53:19.094Z,8.00
2023-01-28T08:55:47.861Z,7.70
2023-01-28T08:58:18.558Z,8.80
2023-01-28T09:00:47.442Z,8.10
2023-01-28T09:03:15.758Z,8.10
2023-01-28T09:05:44.674Z,7.50
2023-01-28T09:08:15.398Z,5.80
2023-01-28T09:10:43.664Z,4.70
2023-01-28T09:13:15.933Z,8.60
2023-01-28T09:15:44.175Z,7.10
2023-01-28T09:18:12.026Z,7.60
2023-01-28T09:20:40.140Z,7.60
2023-01-28T09:23:08.252Z,8.10
2023-01-28T09:25:36.399Z,6.50
2023-01-28T09:28:05.443Z,8.20
2023-01-28T09:30:35.408Z,6.70
2023-01-28T09:33:03.988Z,7.10
2023-01-28T09:35:34.107Z,6.90
2023-01-28T09:38:01.791Z,7.30
2023-01-28T09:40:41.630Z,5.00
2023-01-28T09:43:45.493Z,7.50
2023-01-28T09:46:16.373Z,5.30
2023-01-28T09:48:53.629Z,6.10
2023-01-28T09:51:47.809Z,5.00
2023-01-28T09:54:24.488Z,8.80
2023-01-28T09:57:12.049Z,9.00
2023-01-28T09:59:39.937Z,8.30
2023-01-28T10:02:40.878Z,7.90
2023-01-28T10:05:39.211Z,8.20
2023-01-28T10:08:38.046Z,9.10
2023-01-28T10:12:03.196Z,7.90
2023-01-28T10:14:38.739Z,7.80
2023-01-28T10:17:37.396Z,8.40
2023-01-28T10:20:20.687Z,8.80
2023-01-28T10:23:13.945Z,10.10
2023-01-28T10:25:47.012Z,9.30
2023-01-28T10:28:35.912Z,9.80
2023-01-28T10:31:14.106Z,9.20
2023-01-28T10:33:42.029Z,10.50
2023-01-28T10:36:10.533Z,10.90
2023-01-28T10:38:38.316Z,12.10
2023-01-28T10:41:08.920Z,9.00
2023-01-28T10:43:42.381Z,10.30
2023-01-28T10:46:19.553Z,11.40
2023-01-28T10:49:01.688Z,11.20
2023-01-28T10:51:39.761Z,11.80
2023-01-28T10:54:26.324Z,10.80
2023-01-28T10:57:10.194Z,9.40
2023-01-28T10:59:41.888Z,9.70
2023-01-28T11:02:39.820Z,7.70
2023-01-28T11:05:27.769Z,7.80
2023-01-28T11:08:14.508Z,7.20
2023-01-28T11:10:44.120Z,8.60
2023-01-28T11:13:23.695Z,7.00
2023-01-28T11:16:17.370Z,6.70
2023-01-28T11:19:02.229Z,6.50
2023-01-28T11:21:32.789Z,6.60
2023-01-28T11:24:26.022Z,10.90
2023-01-28T11:26:57.587Z,11.60
2023-01-28T11:29:34.172Z,12.00
2023-01-28T11:32:02.122Z,13.60
2023-01-28T11:34:36.477Z,11.00
2023-01-28T11:37:16.279Z,12.90
2023-01-28T11:39:44.173Z,7.10
2023-01-28T11:42:13.673Z,11.30
2023-01-28T11:44:41.800Z,10.00
2023-01-28T11:48:02.465Z,9.40
2023-01-28T11:50:49.971Z,9.70
2023-01-28T11:53:35.964Z,14.80
2023-01-28T11:56:31.421Z,12.60
2023-01-28T11:59:36.263Z,11.80
2023-01-28T12:02:26.691Z,19.20
2023-01-28T12:05:44.866Z,22.50
2023-01-28T12:08:45.381Z,23.90
2023-01-28T12:12:14.159Z,28.60
2023-01-28T12:15:07.437Z,13.10
2023-01-28T12:18:02.547Z,9.10
2023-01-28T12:20:55.118Z,9.70
2023-01-28T12:24:01.341Z,12.10
2023-01-28T12:27:15.523Z,12.30
2023-01-28T12:30:20.688Z,11.80
2023-01-28T12:33:38.490Z,13.50
2023-01-28T12:36:24.590Z,13.80
2023-01-28T12:39:32.285Z,14.70
2023-01-28T12:42:20.362Z,12.20
2023-01-28T12:44:58.333Z,10.30
2023-01-28T12:47:39.514Z,6.80
2023-01-28T12:50:37.825Z,10.20
2023-01-28T12:53:32.974Z,8.80
2023-01-28T12:56:44.661Z,12.80
2023-01-28T12:59:30.420Z,15.10
2023-01-28T13:02:15.180Z,21.60
2023-01-28T13:05:18.959Z,25.70
2023-01-28T13:08:15.497Z,16.50
2023-01-28T13:10:48.235Z,9.60
2023-01-28T13:13:39.315Z,14.80
2023-01-28T13:16:12.263Z,10.10
2023-01-28T13:18:47.391Z,8.20
2023-01-28T13:21:30.567Z,11.90
2023-01-28T13:24:09.617Z,15.10
2023-01-28T13:26:48.974Z,14.90
2023-01-28T13:29:31.041Z,17.50
2023-01-28T13:32:23.663Z,11.80
2023-01-28T13:35:07.639Z,14.00
2023-01-28T13:37:45.242Z,13.10
2023-01-28T13:40:15.471Z,12.90
2023-01-28T13:42:43.093Z,13.10
2023-01-28T13:45:17.227Z,14.80
2023-01-28T13:47:51.774Z,18.50
2023-01-28T13:50:36.533Z,18.90
2023-01-28T13:53:29.787Z,17.20
2023-01-28T13:55:59.561Z,16.50
2023-01-28T13:59:07.138Z,20.70
2023-01-28T14:02:10.622Z,16.80
2023-01-28T14:04:50.319Z,16.50
2023-01-28T14:08:08.173Z,15.50
2023-01-28T14:10:40.864Z,16.90
2023-01-28T14:13:34.323Z,12.80
2023-01-28T14:16:37.743Z,17.80
2023-01-28T14:19:06.532Z,19.40
2023-01-28T14:21:36.048Z,23.80
2023-01-28T14:24:05.512Z,21.60
2023-01-28T14:27:00.310Z,18.70
2023-01-28T14:29:51.517Z,19.00
2023-01-28T14:32:28.624Z,18.60
2023-01-28T14:35:04.760Z,19.30
2023-01-28T14:37:33.449Z,14.50
2023-01-28T14:40:07.304Z,16.70
2023-01-28T14:42:43.701Z,18.30
2023-01-28T14:45:48.987Z,12.60
2023-01-28T14:48:26.350Z,21.40
2023-01-28T14:51:24.115Z,21.60
2023-01-28T14:54:20.985Z,26.20
2023-01-28T14:57:21.207Z,19.30
2023-01-28T14:59:55.214Z,22.70
2023-01-28T15:02:26.854Z,19.70
2023-01-28T15:04:56.265Z,17.50
2023-01-28T15:07:27.660Z,14.00
2023-01-28T15:10:15.157Z,20.90
2023-01-28T15:13:07.689Z,17.40
2023-01-28T15:15:46.355Z,19.20
2023-01-28T15:18:21.336Z,17.00
2023-01-28T15:20:54.162Z,18.60
2023-01-28T15:23:40.021Z,16.60
2023-01-28T15:26:20.658Z,18.30
2023-01-28T15:28:49.946Z,18.60
2023-01-28T15:31:23.470Z,13.30
2023-01-28T15:34:02.581Z,13.60
2023-01-28T15:36:31.917Z,8.50
2023-01-28T15:38:59.936Z,11.00
2023-01-28T15:41:35.983Z,12.00
2023-01-28T15:44:04.419Z,8.40
2023-01-28T15:46:32.643Z,10.20
2023-01-28T15:49:03.985Z,11.00
2023-01-28T15:51:36.437Z,10.60
2023-01-28T15:54:10.438Z,10.70
2023-01-28T15:56:38.366Z,9.70
2023-01-28T15:59:16.161Z,9.70
2023-01-28T16:01:44.757Z,8.60
2023-01-28T16:04:32.757Z,11.10
2023-01-28T16:07:05.516Z,16.00
2023-01-28T16:09:35.372Z,12.90
2023-01-28T16:12:11.112Z,13.20
2023-01-28T16:14:51.114Z,10.30
2023-01-28T16:17:24.116Z,11.00
2023-01-28T16:20:06.329Z,10.50
2023-01-28T16:22:38.339Z,7.50
2023-01-28T16:25:21.118Z,15.40
2023-01-28T16:27:49.519Z,17.00
2023-01-28T16:30:18.597Z,11.10
2023-01-28T16:32:46.781Z,11.60
2023-01-28T16:35:21.903Z,12.80
2023-01-28T16:37:50.160Z,7.10
2023-01-28T16:40:22.215Z,9.70
2023-01-28T16:42:54.348Z,9.50
2023-01-28T16:45:26.322Z,11.40
2023-01-28T16:47:54.153Z,12.60
2023-01-28T16:50:23.051Z,11.10
2023-01-28T16:52:54.715Z,14.30
2023-01-28T16:55:23.078Z,13.50
2023-01-28T16:57:56.086Z,12.70
2023-01-28T17:00:26.984Z,8.40
2023-01-28T17:02:55.208Z,5.10
2023-01-28T17:05:26.921Z,12.30
2023-01-28T17:07:56.505Z,12.60
2023-01-28T17:10:25.117Z,13.00
2023-01-28T17:12:52.775Z,12.00
2023-01-28T17:15:22.782Z,12.60
2023-01-28T17:17:53.079Z,13.30
2023-01-28T17:20:21.707Z,8.80
2023-01-28T17:22:49.524Z,11.10
2023-01-28T17:25:17.692Z,8.40
2023-01-28T17:27:48.034Z,11.10
2023-01-28T17:30:20.439Z,14.30
2023-01-28T17:32:48.239Z,14.50
2023-01-28T17:35:16.576Z,14.10
2023-01-28T17:37:44.584Z,11.70
2023-01-28T17:40:13.191Z,10.10
2023-01-28T17:42:40.877Z,9.40
2023-01-28T17:45:09.028Z,10.50
2023-01-28T17:47:36.988Z,9.40
2023-01-28T17:50:05.708Z,15.20
2023-01-28T17:52:36.396Z,12.40
2023-01-28T17:55:05.834Z,15.10
2023-01-28T17:57:33.772Z,11.80
2023-01-28T18:00:02.353Z,12.00
2023-01-28T18:02:30.270Z,10.90
2023-01-28T18:04:58.577Z,9.00
2023-01-28T18:07:26.229Z,8.50
2023-01-28T18:09:55.331Z,7.10
2023-01-28T18:12:25.405Z,13.10
2023-01-28T18:14:53.089Z,12.20
2023-01-28T18:17:26.596Z,13.00
2023-01-28T18:19:54.304Z,13.70
2023-01-28T18:22:22.916Z,11.60
2023-01-28T18:24:51.074Z,12.60
2023-01-28T18:27:20.625Z,13.80
2023-01-28T18:29:49.077Z,14.90
2023-01-28T18:32:16.872Z,12.40
2023-01-28T18:34:44.636Z,6.50
2023-01-28T18:37:12.342Z,12.40
2023-01-28T18:39:40.267Z,9.30
2023-01-28T18:42:08.901Z,5.30
2023-01-28T18:44:37.801Z,8.60
2023-01-28T18:47:05.613Z,8.10
2023-01-28T18:49:33.259Z,9.00
2023-01-28T18:52:00.930Z,7.80
2023-01-28T18:54:28.775Z,8.30
2023-01-28T18:56:58.115Z,9.60
2023-01-28T18:59:26.005Z,8.80
2023-01-28T19:01:53.971Z,11.10
2023-01-28T19:04:22.437Z,8.50
2023-01-28T19:06:50.135Z,10.00
2023-01-28T19:09:17.939Z,13.50
2023-01-28T19:11:48.318Z,10.90
2023-01-28T19:14:16.784Z,10.90
2023-01-28T19:16:44.899Z,11.00
2023-01-28T19:19:13.594Z,13.30
2023-01-28T19:21:41.533Z,10.00
2023-01-28T19:24:14.001Z,9.50
2023-01-28T19:26:44.709Z,9.80
2023-01-28T19:29:16.207Z,6.60
2023-01-28T19:31:48.700Z,7.90
2023-01-28T19:34:17.064Z,9.30
2023-01-28T19:36:45.252Z,12.20
2023-01-28T19:39:14.524Z,11.80
2023-01-28T19:41:42.512Z,9.30
2023-01-28T19:44:10.565Z,9.40
2023-01-28T19:46:38.366Z,7.20
2023-01-28T19:49:06.511Z,8.50
2023-01-28T19:51:34.814Z,8.00
2023-01-28T19:54:02.536Z,8.70
2023-01-28T19:56:30.667Z,10.60
2023-01-28T19:58:58.515Z,6.50
2023-01-28T20:01:30.210Z,5.70
2023-01-28T20:04:00.530Z,11.50
2023-01-28T20:06:31.255Z,11.60
2023-01-28T20:09:13.813Z,9.90
2023-01-28T20:11:41.565Z,9.20
2023-01-28T20:14:09.344Z,9.70
2023-01-28T20:16:37.597Z,10.10
2023-01-28T20:19:08.638Z,11.00
2023-01-28T20:21:37.184Z,13.20
2023-01-28T20:24:06.713Z,11.20
2023-01-28T20:26:38.338Z,12.30
2023-01-28T20:29:17.500Z,8.70
2023-01-28T20:31:52.021Z,9.50
2023-01-28T20:34:29.015Z,9.50
2023-01-28T20:36:56.826Z,10.90
2023-01-28T20:39:24.487Z,7.60
2023-01-28T20:41:52.166Z,5.60
2023-01-28T20:44:20.059Z,7.20
2023-01-28T20:46:47.720Z,4.50
2023-01-28T20:49:15.355Z,7.10
2023-01-28T20:51:44.250Z,5.90
2023-01-28T20:54:13.635Z,6.40
2023-01-28T20:56:41.339Z,7.30
2023-01-28T20:59:10.791Z,8.70
2023-01-28T21:01:38.604Z,8.20
2023-01-28T21:04:10.396Z,11.70
2023-01-28T21:06:42.141Z,13.50
2023-01-28T21:09:10.371Z,14.30
2023-01-28T21:11:40.705Z,12.50
2023-01-28T21:14:08.422Z,12.00
2023-01-28T21:16:41.110Z,12.10
2023-01-28T21:19:08.840Z,9.10
2023-01-28T21:21:36.709Z,10.40
2023-01-28T21:24:05.002Z,9.90
2023-01-28T21:26:32.770Z,11.70
2023-01-28T21:29:00.573Z,10.10
2023-01-28T21:31:28.363Z,11.60
2023-01-28T21:34:01.331Z,9.30
2023-01-28T21:36:33.750Z,6.50
2023-01-28T21:39:01.742Z,8.30
2023-01-28T21:41:29.608Z,6.40
2023-01-28T21:43:58.913Z,7.00
2023-01-28T21:46:30.277Z,6.30
2023-01-28T21:49:05.485Z,6.60
2023-01-28T21:51:36.455Z,7.90
2023-01-28T21:54:07.829Z,6.20
2023-01-28T21:56:35.638Z,8.70
2023-01-28T21:59:22.479Z,6.90
2023-01-28T22:01:52.609Z,5.70
2023-01-28T22:04:21.456Z,6.90
2023-01-28T22:06:49.379Z,5.40
2023-01-28T22:09:17.215Z,6.70
2023-01-28T22:11:45.601Z,6.30
2023-01-28T22:14:13.842Z,4.40
2023-01-28T22:16:43.100Z,4.70
2023-01-28T22:19:11.785Z,6.30
2023-01-28T22:21:43.283Z,5.90
2023-01-28T22:24:17.786Z,6.70
2023-01-28T22:26:47.496Z,7.10
2023-01-28T22:29:17.651Z,7.80
2023-01-28T22:31:48.135Z,7.40
2023-01-28T22:34:17.262Z,5.90
2023-01-28T22:36:46.202Z,5.90
2023-01-28T22:39:17.296Z,3.60
2023-01-28T22:41:45.801Z,3.70
2023-01-28T22:44:14.670Z,3.30
2023-01-28T22:46:42.854Z,3.40
2023-01-28T22:49:15.059Z,6.20
2023-01-28T22:51:43.113Z,4.90
2023-01-28T22:54:14.860Z,7.30
2023-01-28T22:56:43.196Z,7.80
2023-01-28T22:59:12.457Z,6.60
2023-01-28T23:01:40.437Z,6.90
2023-01-28T23:04:08.631Z,7.10
2023-01-28T23:06:37.180Z,7.10
2023-01-28T23:09:04.949Z,6.60
2023-01-28T23:11:33.371Z,8.00
2023-01-28T23:14:22.625Z,8.90
2023-01-28T23:17:09.754Z,8.80
2023-01-28T23:19:56.638Z,6.90
2023-01-28T23:22:51.244Z,4.40
2023-01-28T23:25:23.565Z,5.50
2023-01-28T23:27:51.442Z,5.80
2023-01-28T23:30:25.108Z,6.90
2023-01-28T23:32:57.085Z,7.50
2023-01-28T23:35:26.082Z,7.40
2023-01-28T23:37:54.611Z,7.20
2023-01-28T23:40:24.658Z,5.90
2023-01-28T23:42:54.010Z,6.40
2023-01-28T23:45:22.507Z,7.40
2023-01-28T23:47:50.265Z,5.50
2023-01-28T23:50:18.682Z,4.10
2023-01-28T23:52:46.554Z,5.20
2023-01-28T23:55:15.943Z,4.60
2023-01-28T23:57:43.621Z,3.30
